Terminal Aerodrome Forecast
Issued by NWS

Home | Current Version | Previous Version | Text Only | Print | Product List | Glossary On
Versions: 1 2 3 4 5 6 7 8 9 10 11 12 13 14 15 16
000
FTUS42 KTBW 192209 AAB
TAFRSW
TAF AMD
KRSW 192209Z 1922/2018 07005KT P6SM VCTS FEW025CB SCT050 BKN070
      TEMPO 1922/1923 3SM SHRA SCT025 BKN030
     FM200000 07004KT P6SM SCT050
     FM201500 09005KT P6SM VCTS SCT035CB=

USA.gov is the U.S. government's official web portal to all federal, state and local government web resources and services.